sensor_id;sensor_type;location;lat;lon;timestamp;P1;durP1;ratioP1;P2;durP2;ratioP2
72065;SDS011;59939;52.516;13.420;2023-04-01T00:00:22;16.47;;;14.83;;
72065;SDS011;59939;52.516;13.420;2023-04-01T00:03:27;17.07;;;15.67;;
72065;SDS011;59939;52.516;13.420;2023-04-01T00:06:31;17.20;;;15.60;;
72065;SDS011;59939;52.516;13.420;2023-04-01T00:09:35;17.70;;;15.87;;
72065;SDS011;59939;52.516;13.420;2023-04-01T00:12:39;17.30;;;15.87;;
72065;SDS011;59939;52.516;13.420;2023-04-01T00:19:20;18.63;;;17.03;;
72065;SDS011;59939;52.516;13.420;2023-04-01T00:22:24;19.47;;;17.57;;
72065;SDS011;59939;52.516;13.420;2023-04-01T00:25:28;19.63;;;17.93;;
72065;SDS011;59939;52.516;13.420;2023-04-01T00:28:33;20.37;;;18.67;;
72065;SDS011;59939;52.516;13.420;2023-04-01T00:31:51;19.33;;;17.30;;
72065;SDS011;59939;52.516;13.420;2023-04-01T00:34:56;18.47;;;16.93;;
72065;SDS011;59939;52.516;13.420;2023-04-01T00:38:04;19.20;;;17.30;;
72065;SDS011;59939;52.516;13.420;2023-04-01T00:41:10;20.03;;;18.53;;
72065;SDS011;59939;52.516;13.420;2023-04-01T00:44:21;21.63;;;19.70;;
72065;SDS011;59939;52.516;13.420;2023-04-01T00:47:25;20.97;;;19.37;;
72065;SDS011;59939;52.516;13.420;2023-04-01T00:50:30;20.83;;;19.10;;
72065;SDS011;59939;52.516;13.420;2023-04-01T00:53:36;20.33;;;18.50;;
72065;SDS011;59939;52.516;13.420;2023-04-01T01:00:17;23.07;;;20.70;;
72065;SDS011;59939;52.516;13.420;2023-04-01T01:03:21;23.17;;;21.13;;
72065;SDS011;59939;52.516;13.420;2023-04-01T01:06:44;23.10;;;21.20;;
72065;SDS011;59939;52.516;13.420;2023-04-01T01:10:26;24.20;;;22.40;;
72065;SDS011;59939;52.516;13.420;2023-04-01T01:13:31;23.50;;;21.40;;
72065;SDS011;59939;52.516;13.420;2023-04-01T01:16:38;22.10;;;19.80;;
72065;SDS011;59939;52.516;13.420;2023-04-01T01:19:57;22.23;;;20.30;;
72065;SDS011;59939;52.516;13.420;2023-04-01T01:23:17;24.73;;;22.77;;
72065;SDS011;59939;52.516;13.420;2023-04-01T01:36:26;27.37;;;25.30;;
72065;SDS011;59939;52.516;13.420;2023-04-01T01:39:32;27.03;;;24.70;;
72065;SDS011;59939;52.516;13.420;2023-04-01T01:42:38;26.90;;;24.73;;
72065;SDS011;59939;52.516;13.420;2023-04-01T01:45:44;26.93;;;24.70;;
72065;SDS011;59939;52.516;13.420;2023-04-01T01:49:03;28.63;;;26.53;;
72065;SDS011;59939;52.516;13.420;2023-04-01T01:52:08;31.07;;;29.07;;
72065;SDS011;59939;52.516;13.420;2023-04-01T01:58:58;29.17;;;26.80;;
72065;SDS011;59939;52.516;13.420;2023-04-01T02:02:04;28.17;;;26.17;;
72065;SDS011;59939;52.516;13.420;2023-04-01T02:05:20;29.90;;;27.47;;
72065;SDS011;59939;52.516;13.420;2023-04-01T02:11:46;30.20;;;27.90;;
72065;SDS011;59939;52.516;13.420;2023-04-01T02:15:05;30.20;;;28.00;;
72065;SDS011;59939;52.516;13.420;2023-04-01T02:18:11;37.10;;;34.70;;
72065;SDS011;59939;52.516;13.420;2023-04-01T02:21:16;33.27;;;31.13;;
72065;SDS011;59939;52.516;13.420;2023-04-01T02:24:26;29.93;;;28.03;;
72065;SDS011;59939;52.516;13.420;2023-04-01T02:27:31;34.60;;;32.40;;
72065;SDS011;59939;52.516;13.420;2023-04-01T02:30:36;31.60;;;29.40;;
72065;SDS011;59939;52.516;13.420;2023-04-01T02:33:41;28.53;;;26.43;;
72065;SDS011;59939;52.516;13.420;2023-04-01T02:36:46;27.50;;;25.40;;
72065;SDS011;59939;52.516;13.420;2023-04-01T02:39:50;28.10;;;26.20;;
72065;SDS011;59939;52.516;13.420;2023-04-01T02:42:56;28.97;;;27.07;;
72065;SDS011;59939;52.516;13.420;2023-04-01T02:46:00;31.73;;;29.37;;
72065;SDS011;59939;52.516;13.420;2023-04-01T02:49:06;30.97;;;28.77;;
72065;SDS011;59939;52.516;13.420;2023-04-01T02:52:10;31.23;;;29.30;;
72065;SDS011;59939;52.516;13.420;2023-04-01T02:55:16;32.83;;;30.53;;
72065;SDS011;59939;52.516;13.420;2023-04-01T02:58:20;34.37;;;31.97;;
72065;SDS011;59939;52.516;13.420;2023-04-01T03:01:24;34.70;;;32.47;;
72065;SDS011;59939;52.516;13.420;2023-04-01T03:04:35;36.37;;;34.00;;
72065;SDS011;59939;52.516;13.420;2023-04-01T03:07:39;37.27;;;34.87;;
72065;SDS011;59939;52.516;13.420;2023-04-01T03:10:43;39.33;;;37.03;;
72065;SDS011;59939;52.516;13.420;2023-04-01T03:13:47;34.90;;;32.50;;
72065;SDS011;59939;52.516;13.420;2023-04-01T03:16:50;33.67;;;31.47;;
72065;SDS011;59939;52.516;13.420;2023-04-01T03:19:57;33.80;;;31.47;;
72065;SDS011;59939;52.516;13.420;2023-04-01T03:23:01;38.27;;;34.90;;
72065;SDS011;59939;52.516;13.420;2023-04-01T03:26:04;35.50;;;33.30;;
72065;SDS011;59939;52.516;13.420;2023-04-01T03:29:15;37.70;;;35.40;;
72065;SDS011;59939;52.516;13.420;2023-04-01T03:32:20;38.67;;;36.27;;
72065;SDS011;59939;52.516;13.420;2023-04-01T03:35:27;39.80;;;37.20;;
72065;SDS011;59939;52.516;13.420;2023-04-01T03:38:31;40.40;;;37.97;;
72065;SDS011;59939;52.516;13.420;2023-04-01T03:41:37;41.43;;;38.70;;
72065;SDS011;59939;52.516;13.420;2023-04-01T03:44:43;41.00;;;38.40;;
72065;SDS011;59939;52.516;13.420;2023-04-01T03:47:56;40.27;;;37.77;;
72065;SDS011;59939;52.516;13.420;2023-04-01T03:51:01;40.13;;;37.67;;
72065;SDS011;59939;52.516;13.420;2023-04-01T03:54:18;37.80;;;35.40;;
72065;SDS011;59939;52.516;13.420;2023-04-01T03:57:27;39.30;;;36.90;;
72065;SDS011;59939;52.516;13.420;2023-04-01T04:00:53;38.37;;;35.70;;
72065;SDS011;59939;52.516;13.420;2023-04-01T04:03:58;39.90;;;37.30;;
72065;SDS011;59939;52.516;13.420;2023-04-01T04:07:02;37.93;;;35.53;;
72065;SDS011;59939;52.516;13.420;2023-04-01T04:10:16;38.87;;;36.47;;
72065;SDS011;59939;52.516;13.420;2023-04-01T04:13:20;35.20;;;32.93;;
72065;SDS011;59939;52.516;13.420;2023-04-01T04:16:35;35.53;;;33.27;;
72065;SDS011;59939;52.516;13.420;2023-04-01T04:19:47;38.30;;;35.80;;
72065;SDS011;59939;52.516;13.420;2023-04-01T04:22:52;35.37;;;33.07;;
72065;SDS011;59939;52.516;13.420;2023-04-01T04:25:57;33.57;;;31.07;;
72065;SDS011;59939;52.516;13.420;2023-04-01T04:29:09;32.50;;;30.20;;
72065;SDS011;59939;52.516;13.420;2023-04-01T04:32:12;32.00;;;29.47;;
72065;SDS011;59939;52.516;13.420;2023-04-01T04:35:16;30.70;;;28.27;;
72065;SDS011;59939;52.516;13.420;2023-04-01T04:38:21;29.30;;;26.90;;
72065;SDS011;59939;52.516;13.420;2023-04-01T04:41:25;28.47;;;25.77;;
72065;SDS011;59939;52.516;13.420;2023-04-01T04:44:29;28.33;;;26.13;;
72065;SDS011;59939;52.516;13.420;2023-04-01T04:47:34;27.67;;;25.47;;
72065;SDS011;59939;52.516;13.420;2023-04-01T04:50:41;26.60;;;24.47;;
72065;SDS011;59939;52.516;13.420;2023-04-01T04:53:46;25.97;;;23.93;;
72065;SDS011;59939;52.516;13.420;2023-04-01T04:56:51;27.13;;;24.73;;
72065;SDS011;59939;52.516;13.420;2023-04-01T04:59:55;28.10;;;25.90;;
72065;SDS011;59939;52.516;13.420;2023-04-01T05:03:10;29.43;;;27.00;;
72065;SDS011;59939;52.516;13.420;2023-04-01T05:06:15;28.43;;;26.40;;
72065;SDS011;59939;52.516;13.420;2023-04-01T05:09:19;26.63;;;24.33;;
72065;SDS011;59939;52.516;13.420;2023-04-01T05:12:24;27.20;;;24.50;;
72065;SDS011;59939;52.516;13.420;2023-04-01T05:15:34;26.00;;;23.90;;
72065;SDS011;59939;52.516;13.420;2023-04-01T05:18:39;24.93;;;22.93;;
72065;SDS011;59939;52.516;13.420;2023-04-01T05:21:43;24.20;;;21.90;;
72065;SDS011;59939;52.516;13.420;2023-04-01T05:24:54;24.87;;;22.73;;
72065;SDS011;59939;52.516;13.420;2023-04-01T05:27:59;23.20;;;20.90;;
72065;SDS011;59939;52.516;13.420;2023-04-01T05:31:03;22.07;;;20.03;;
72065;SDS011;59939;52.516;13.420;2023-04-01T05:34:16;23.40;;;21.30;;
72065;SDS011;59939;52.516;13.420;2023-04-01T05:37:20;23.17;;;21.07;;
72065;SDS011;59939;52.516;13.420;2023-04-01T05:40:23;24.70;;;22.40;;
72065;SDS011;59939;52.516;13.420;2023-04-01T05:43:28;25.23;;;22.87;;
72065;SDS011;59939;52.516;13.420;2023-04-01T05:46:36;26.33;;;23.90;;
72065;SDS011;59939;52.516;13.420;2023-04-01T05:49:56;27.03;;;24.50;;
72065;SDS011;59939;52.516;13.420;2023-04-01T05:53:01;26.90;;;24.73;;
72065;SDS011;59939;52.516;13.420;2023-04-01T05:56:14;30.70;;;28.03;;
72065;SDS011;59939;52.516;13.420;2023-04-01T05:59:24;34.50;;;31.60;;
72065;SDS011;59939;52.516;13.420;2023-04-01T06:02:28;31.97;;;29.50;;
72065;SDS011;59939;52.516;13.420;2023-04-01T06:05:39;32.83;;;30.07;;
72065;SDS011;59939;52.516;13.420;2023-04-01T06:08:44;33.73;;;31.30;;
72065;SDS011;59939;52.516;13.420;2023-04-01T06:11:57;33.90;;;31.47;;
72065;SDS011;59939;52.516;13.420;2023-04-01T06:31:57;39.90;;;36.80;;
72065;SDS011;59939;52.516;13.420;2023-04-01T06:35:21;39.03;;;36.00;;
72065;SDS011;59939;52.516;13.420;2023-04-01T06:38:35;36.43;;;33.40;;
72065;SDS011;59939;52.516;13.420;2023-04-01T06:41:56;40.13;;;36.70;;
72065;SDS011;59939;52.516;13.420;2023-04-01T06:45:20;39.27;;;35.77;;
72065;SDS011;59939;52.516;13.420;2023-04-01T06:49:02;38.77;;;35.63;;
72065;SDS011;59939;52.516;13.420;2023-04-01T06:55:53;36.77;;;33.67;;
72065;SDS011;59939;52.516;13.420;2023-04-01T06:59:25;36.53;;;33.37;;
72065;SDS011;59939;52.516;13.420;2023-04-01T07:02:34;36.20;;;32.80;;
72065;SDS011;59939;52.516;13.420;2023-04-01T07:05:39;33.47;;;30.50;;
72065;SDS011;59939;52.516;13.420;2023-04-01T07:08:43;29.70;;;26.87;;
72065;SDS011;59939;52.516;13.420;2023-04-01T07:11:47;32.33;;;29.30;;
72065;SDS011;59939;52.516;13.420;2023-04-01T07:18:21;33.33;;;30.13;;
72065;SDS011;59939;52.516;13.420;2023-04-01T07:21:35;31.87;;;28.80;;
72065;SDS011;59939;52.516;13.420;2023-04-01T07:24:49;33.07;;;27.53;;
72065;SDS011;59939;52.516;13.420;2023-04-01T07:28:01;30.73;;;27.70;;
72065;SDS011;59939;52.516;13.420;2023-04-01T07:34:50;35.33;;;31.67;;
72065;SDS011;59939;52.516;13.420;2023-04-01T07:41:05;28.77;;;26.30;;
72065;SDS011;59939;52.516;13.420;2023-04-01T07:47:34;28.10;;;25.67;;
72065;SDS011;59939;52.516;13.420;2023-04-01T07:54:13;26.00;;;23.77;;
72065;SDS011;59939;52.516;13.420;2023-04-01T07:57:22;23.30;;;21.37;;
72065;SDS011;59939;52.516;13.420;2023-04-01T08:00:33;25.37;;;22.97;;
72065;SDS011;59939;52.516;13.420;2023-04-01T08:04:14;26.00;;;23.83;;
72065;SDS011;59939;52.516;13.420;2023-04-01T08:07:21;28.47;;;26.50;;
72065;SDS011;59939;52.516;13.420;2023-04-01T08:14:43;31.20;;;28.90;;
72065;SDS011;59939;52.516;13.420;2023-04-01T08:18:20;34.57;;;32.23;;
72065;SDS011;59939;52.516;13.420;2023-04-01T08:21:35;30.93;;;28.57;;
72065;SDS011;59939;52.516;13.420;2023-04-01T08:24:43;29.17;;;27.17;;
72065;SDS011;59939;52.516;13.420;2023-04-01T08:28:03;27.03;;;25.03;;
72065;SDS011;59939;52.516;13.420;2023-04-01T08:31:14;27.20;;;25.00;;
72065;SDS011;59939;52.516;13.420;2023-04-01T08:34:39;27.97;;;25.87;;
72065;SDS011;59939;52.516;13.420;2023-04-01T08:37:50;29.37;;;26.73;;
72065;SDS011;59939;52.516;13.420;2023-04-01T08:54:46;33.80;;;31.07;;
72065;SDS011;59939;52.516;13.420;2023-04-01T08:58:11;33.30;;;30.60;;
72065;SDS011;59939;52.516;13.420;2023-04-01T09:01:47;34.33;;;31.53;;
72065;SDS011;59939;52.516;13.420;2023-04-01T09:15:47;34.40;;;31.50;;
72065;SDS011;59939;52.516;13.420;2023-04-01T09:19:06;34.30;;;31.20;;
72065;SDS011;59939;52.516;13.420;2023-04-01T09:22:33;35.43;;;32.63;;
72065;SDS011;59939;52.516;13.420;2023-04-01T09:26:02;34.77;;;31.77;;
72065;SDS011;59939;52.516;13.420;2023-04-01T09:36:19;37.13;;;34.13;;
72065;SDS011;59939;52.516;13.420;2023-04-01T09:39:41;37.67;;;34.37;;
72065;SDS011;59939;52.516;13.420;2023-04-01T09:43:02;40.57;;;37.17;;
72065;SDS011;59939;52.516;13.420;2023-04-01T09:49:40;37.73;;;34.33;;
72065;SDS011;59939;52.516;13.420;2023-04-01T09:52:53;38.93;;;35.33;;
72065;SDS011;59939;52.516;13.420;2023-04-01T10:13:46;43.63;;;40.13;;
72065;SDS011;59939;52.516;13.420;2023-04-01T10:17:16;42.63;;;39.37;;
72065;SDS011;59939;52.516;13.420;2023-04-01T10:41:05;44.00;;;40.53;;
72065;SDS011;59939;52.516;13.420;2023-04-01T10:55:09;35.77;;;32.70;;
72065;SDS011;59939;52.516;13.420;2023-04-01T10:58:53;36.40;;;33.20;;
72065;SDS011;59939;52.516;13.420;2023-04-01T11:05:57;33.27;;;30.53;;
72065;SDS011;59939;52.516;13.420;2023-04-01T11:09:25;35.07;;;32.07;;
72065;SDS011;59939;52.516;13.420;2023-04-01T11:22:38;36.63;;;33.63;;
72065;SDS011;59939;52.516;13.420;2023-04-01T11:25:56;35.27;;;32.27;;
72065;SDS011;59939;52.516;13.420;2023-04-01T11:29:43;30.17;;;27.67;;
72065;SDS011;59939;52.516;13.420;2023-04-01T11:36:39;28.23;;;25.93;;
72065;SDS011;59939;52.516;13.420;2023-04-01T11:40:07;26.13;;;24.03;;
72065;SDS011;59939;52.516;13.420;2023-04-01T11:43:37;27.47;;;25.27;;
72065;SDS011;59939;52.516;13.420;2023-04-01T11:47:02;28.50;;;26.40;;
72065;SDS011;59939;52.516;13.420;2023-04-01T11:50:18;27.50;;;25.40;;
72065;SDS011;59939;52.516;13.420;2023-04-01T11:53:44;27.33;;;25.10;;
72065;SDS011;59939;52.516;13.420;2023-04-01T11:59:58;27.77;;;25.47;;
72065;SDS011;59939;52.516;13.420;2023-04-01T12:03:29;26.03;;;23.73;;
72065;SDS011;59939;52.516;13.420;2023-04-01T12:17:03;29.63;;;27.07;;
72065;SDS011;59939;52.516;13.420;2023-04-01T12:20:17;23.33;;;21.13;;
72065;SDS011;59939;52.516;13.420;2023-04-01T12:33:14;21.87;;;19.67;;
72065;SDS011;59939;52.516;13.420;2023-04-01T12:36:35;21.73;;;19.40;;
72065;SDS011;59939;52.516;13.420;2023-04-01T12:39:48;22.17;;;19.97;;
72065;SDS011;59939;52.516;13.420;2023-04-01T12:42:57;24.77;;;22.23;;
72065;SDS011;59939;52.516;13.420;2023-04-01T12:46:13;24.10;;;21.60;;
72065;SDS011;59939;52.516;13.420;2023-04-01T12:55:35;18.40;;;15.73;;
72065;SDS011;59939;52.516;13.420;2023-04-01T13:02:08;19.47;;;15.70;;
72065;SDS011;59939;52.516;13.420;2023-04-01T13:05:20;22.33;;;16.67;;
72065;SDS011;59939;52.516;13.420;2023-04-01T13:08:37;28.17;;;18.90;;
72065;SDS011;59939;52.516;13.420;2023-04-01T13:11:48;25.77;;;17.97;;
72065;SDS011;59939;52.516;13.420;2023-04-01T13:27:25;23.47;;;13.60;;
72065;SDS011;59939;52.516;13.420;2023-04-01T13:30:35;23.80;;;14.10;;
72065;SDS011;59939;52.516;13.420;2023-04-01T13:33:42;24.33;;;14.73;;
72065;SDS011;59939;52.516;13.420;2023-04-01T13:40:00;21.63;;;12.53;;
72065;SDS011;59939;52.516;13.420;2023-04-01T13:43:21;23.63;;;14.47;;
72065;SDS011;59939;52.516;13.420;2023-04-01T13:46:46;25.87;;;14.37;;
72065;SDS011;59939;52.516;13.420;2023-04-01T13:50:06;24.50;;;13.50;;
72065;SDS011;59939;52.516;13.420;2023-04-01T13:56:22;22.23;;;13.17;;
72065;SDS011;59939;52.516;13.420;2023-04-01T14:03:02;21.87;;;12.37;;
72065;SDS011;59939;52.516;13.420;2023-04-01T14:06:51;20.73;;;12.53;;
72065;SDS011;59939;52.516;13.420;2023-04-01T14:12:57;21.10;;;11.77;;
72065;SDS011;59939;52.516;13.420;2023-04-01T14:19:34;21.00;;;11.73;;
72065;SDS011;59939;52.516;13.420;2023-04-01T14:22:46;20.13;;;11.47;;
72065;SDS011;59939;52.516;13.420;2023-04-01T14:26:02;20.23;;;11.43;;
72065;SDS011;59939;52.516;13.420;2023-04-01T14:35:38;17.97;;;10.57;;
72065;SDS011;59939;52.516;13.420;2023-04-01T14:38:53;19.97;;;11.50;;
72065;SDS011;59939;52.516;13.420;2023-04-01T14:42:03;19.27;;;11.80;;
72065;SDS011;59939;52.516;13.420;2023-04-01T14:52:22;19.90;;;11.20;;
72065;SDS011;59939;52.516;13.420;2023-04-01T14:55:28;18.67;;;10.30;;
72065;SDS011;59939;52.516;13.420;2023-04-01T14:58:41;19.63;;;10.60;;
72065;SDS011;59939;52.516;13.420;2023-04-01T15:05:23;17.53;;;10.00;;
72065;SDS011;59939;52.516;13.420;2023-04-01T15:08:33;20.93;;;11.03;;
72065;SDS011;59939;52.516;13.420;2023-04-01T15:11:56;18.93;;;10.67;;
72065;SDS011;59939;52.516;13.420;2023-04-01T15:15:14;18.17;;;10.10;;
72065;SDS011;59939;52.516;13.420;2023-04-01T15:31:37;20.07;;;10.30;;
72065;SDS011;59939;52.516;13.420;2023-04-01T15:34:59;19.77;;;9.80;;
72065;SDS011;59939;52.516;13.420;2023-04-01T15:41:15;17.67;;;9.93;;
72065;SDS011;59939;52.516;13.420;2023-04-01T15:44:35;16.33;;;8.67;;
72065;SDS011;59939;52.516;13.420;2023-04-01T15:47:58;15.90;;;9.13;;
72065;SDS011;59939;52.516;13.420;2023-04-01T15:51:09;18.90;;;9.30;;
72065;SDS011;59939;52.516;13.420;2023-04-01T15:57:39;16.00;;;8.80;;
72065;SDS011;59939;52.516;13.420;2023-04-01T16:11:03;19.23;;;10.80;;
72065;SDS011;59939;52.516;13.420;2023-04-01T16:14:14;20.60;;;11.23;;
72065;SDS011;59939;52.516;13.420;2023-04-01T16:17:25;23.13;;;10.63;;
72065;SDS011;59939;52.516;13.420;2023-04-01T16:23:56;19.57;;;10.10;;
72065;SDS011;59939;52.516;13.420;2023-04-01T16:33:57;18.10;;;10.53;;
72065;SDS011;59939;52.516;13.420;2023-04-01T16:37:19;16.63;;;9.83;;
72065;SDS011;59939;52.516;13.420;2023-04-01T16:40:44;18.03;;;10.47;;
72065;SDS011;59939;52.516;13.420;2023-04-01T16:43:51;17.27;;;9.47;;
72065;SDS011;59939;52.516;13.420;2023-04-01T16:46:59;16.17;;;8.87;;
72065;SDS011;59939;52.516;13.420;2023-04-01T16:53:42;16.73;;;9.83;;
72065;SDS011;59939;52.516;13.420;2023-04-01T16:56:49;14.30;;;8.03;;
72065;SDS011;59939;52.516;13.420;2023-04-01T16:59:56;17.00;;;10.17;;
72065;SDS011;59939;52.516;13.420;2023-04-01T17:03:13;15.77;;;9.00;;
72065;SDS011;59939;52.516;13.420;2023-04-01T17:06:31;16.47;;;9.40;;
72065;SDS011;59939;52.516;13.420;2023-04-01T17:13:06;18.27;;;9.33;;
72065;SDS011;59939;52.516;13.420;2023-04-01T17:16:26;17.77;;;9.60;;
72065;SDS011;59939;52.516;13.420;2023-04-01T17:19:46;18.50;;;10.00;;
72065;SDS011;59939;52.516;13.420;2023-04-01T17:22:54;17.67;;;10.77;;
72065;SDS011;59939;52.516;13.420;2023-04-01T17:29:26;19.30;;;10.50;;
72065;SDS011;59939;52.516;13.420;2023-04-01T17:32:48;17.37;;;10.07;;
72065;SDS011;59939;52.516;13.420;2023-04-01T17:39:21;18.27;;;10.37;;
72065;SDS011;59939;52.516;13.420;2023-04-01T17:45:59;20.63;;;10.20;;
72065;SDS011;59939;52.516;13.420;2023-04-01T17:52:48;20.40;;;10.10;;
72065;SDS011;59939;52.516;13.420;2023-04-01T17:56:03;18.53;;;10.50;;
72065;SDS011;59939;52.516;13.420;2023-04-01T17:59:11;17.80;;;9.67;;
72065;SDS011;59939;52.516;13.420;2023-04-01T18:02:42;18.97;;;10.43;;
72065;SDS011;59939;52.516;13.420;2023-04-01T18:09:41;23.07;;;11.13;;
72065;SDS011;59939;52.516;13.420;2023-04-01T18:22:48;18.70;;;10.30;;
72065;SDS011;59939;52.516;13.420;2023-04-01T18:26:10;18.00;;;9.47;;
72065;SDS011;59939;52.516;13.420;2023-04-01T18:32:34;18.80;;;10.00;;
72065;SDS011;59939;52.516;13.420;2023-04-01T18:38:49;18.27;;;9.53;;
72065;SDS011;59939;52.516;13.420;2023-04-01T18:42:03;20.93;;;8.87;;
72065;SDS011;59939;52.516;13.420;2023-04-01T18:45:19;18.47;;;9.87;;
72065;SDS011;59939;52.516;13.420;2023-04-01T18:48:33;15.80;;;8.50;;
72065;SDS011;59939;52.516;13.420;2023-04-01T19:01:37;21.20;;;9.60;;
72065;SDS011;59939;52.516;13.420;2023-04-01T19:04:52;17.80;;;10.43;;
72065;SDS011;59939;52.516;13.420;2023-04-01T19:08:12;20.30;;;10.70;;
72065;SDS011;59939;52.516;13.420;2023-04-01T19:11:23;23.10;;;12.00;;
72065;SDS011;59939;52.516;13.420;2023-04-01T19:18:13;25.13;;;12.40;;
72065;SDS011;59939;52.516;13.420;2023-04-01T19:21:29;22.60;;;11.37;;
72065;SDS011;59939;52.516;13.420;2023-04-01T19:24:53;21.40;;;11.43;;
72065;SDS011;59939;52.516;13.420;2023-04-01T19:37:45;23.37;;;11.67;;
72065;SDS011;59939;52.516;13.420;2023-04-01T19:40:52;23.40;;;12.47;;
72065;SDS011;59939;52.516;13.420;2023-04-01T19:50:53;25.50;;;13.07;;
72065;SDS011;59939;52.516;13.420;2023-04-01T19:54:00;29.47;;;13.57;;
72065;SDS011;59939;52.516;13.420;2023-04-01T19:57:21;29.80;;;15.17;;
72065;SDS011;59939;52.516;13.420;2023-04-01T20:03:46;25.80;;;13.17;;
72065;SDS011;59939;52.516;13.420;2023-04-01T20:06:55;23.33;;;13.40;;
72065;SDS011;59939;52.516;13.420;2023-04-01T20:10:10;26.30;;;13.43;;
72065;SDS011;59939;52.516;13.420;2023-04-01T20:13:28;23.07;;;13.23;;
72065;SDS011;59939;52.516;13.420;2023-04-01T20:20:02;22.57;;;12.33;;
72065;SDS011;59939;52.516;13.420;2023-04-01T20:26:14;26.60;;;13.10;;
72065;SDS011;59939;52.516;13.420;2023-04-01T20:29:36;26.30;;;12.77;;
72065;SDS011;59939;52.516;13.420;2023-04-01T20:36:00;28.17;;;13.53;;
72065;SDS011;59939;52.516;13.420;2023-04-01T20:39:20;25.77;;;13.57;;
72065;SDS011;59939;52.516;13.420;2023-04-01T20:42:46;27.03;;;13.03;;
72065;SDS011;59939;52.516;13.420;2023-04-01T20:46:07;24.37;;;13.70;;
72065;SDS011;59939;52.516;13.420;2023-04-01T20:49:20;24.37;;;12.60;;
72065;SDS011;59939;52.516;13.420;2023-04-01T20:52:32;21.10;;;11.77;;
72065;SDS011;59939;52.516;13.420;2023-04-01T20:55:47;26.37;;;12.37;;
72065;SDS011;59939;52.516;13.420;2023-04-01T21:12:05;21.00;;;8.90;;
72065;SDS011;59939;52.516;13.420;2023-04-01T21:15:21;19.20;;;8.70;;
72065;SDS011;59939;52.516;13.420;2023-04-01T21:18:39;18.00;;;8.47;;
72065;SDS011;59939;52.516;13.420;2023-04-01T21:22:04;18.13;;;8.43;;
72065;SDS011;59939;52.516;13.420;2023-04-01T21:25:17;20.50;;;8.10;;
72065;SDS011;59939;52.516;13.420;2023-04-01T21:28:41;17.10;;;8.00;;
72065;SDS011;59939;52.516;13.420;2023-04-01T21:31:53;14.30;;;7.43;;
72065;SDS011;59939;52.516;13.420;2023-04-01T21:35:07;16.73;;;7.40;;
72065;SDS011;59939;52.516;13.420;2023-04-01T21:41:52;17.83;;;8.20;;
72065;SDS011;59939;52.516;13.420;2023-04-01T21:45:08;16.27;;;7.40;;
72065;SDS011;59939;52.516;13.420;2023-04-01T21:48:18;17.23;;;7.37;;
72065;SDS011;59939;52.516;13.420;2023-04-01T21:51:33;15.10;;;6.73;;
72065;SDS011;59939;52.516;13.420;2023-04-01T21:54:50;15.37;;;7.03;;
72065;SDS011;59939;52.516;13.420;2023-04-01T21:58:08;15.37;;;7.03;;
72065;SDS011;59939;52.516;13.420;2023-04-01T22:04:51;13.73;;;6.23;;
72065;SDS011;59939;52.516;13.420;2023-04-01T22:08:18;18.40;;;7.40;;
72065;SDS011;59939;52.516;13.420;2023-04-01T22:11:27;15.07;;;7.00;;
72065;SDS011;59939;52.516;13.420;2023-04-01T22:17:48;16.57;;;7.47;;
72065;SDS011;59939;52.516;13.420;2023-04-01T22:21:00;17.70;;;8.13;;
72065;SDS011;59939;52.516;13.420;2023-04-01T22:24:12;16.60;;;7.93;;
72065;SDS011;59939;52.516;13.420;2023-04-01T22:30:29;13.07;;;6.93;;
72065;SDS011;59939;52.516;13.420;2023-04-01T22:33:43;18.03;;;7.80;;
72065;SDS011;59939;52.516;13.420;2023-04-01T22:36:53;18.07;;;8.00;;
72065;SDS011;59939;52.516;13.420;2023-04-01T22:43:12;18.03;;;6.83;;
72065;SDS011;59939;52.516;13.420;2023-04-01T22:46:21;14.90;;;6.67;;
72065;SDS011;59939;52.516;13.420;2023-04-01T22:49:32;13.90;;;6.37;;
72065;SDS011;59939;52.516;13.420;2023-04-01T22:52:41;15.43;;;6.37;;
72065;SDS011;59939;52.516;13.420;2023-04-01T22:55:46;14.53;;;5.97;;
72065;SDS011;59939;52.516;13.420;2023-04-01T22:59:06;17.10;;;7.03;;
72065;SDS011;59939;52.516;13.420;2023-04-01T23:08:52;14.23;;;7.10;;
72065;SDS011;59939;52.516;13.420;2023-04-01T23:12:15;13.73;;;6.87;;
72065;SDS011;59939;52.516;13.420;2023-04-01T23:15:20;13.93;;;7.67;;
72065;SDS011;59939;52.516;13.420;2023-04-01T23:18:25;15.30;;;7.93;;
72065;SDS011;59939;52.516;13.420;2023-04-01T23:21:41;15.23;;;7.27;;
72065;SDS011;59939;52.516;13.420;2023-04-01T23:24:49;15.23;;;7.00;;
72065;SDS011;59939;52.516;13.420;2023-04-01T23:38:17;13.77;;;5.97;;
72065;SDS011;59939;52.516;13.420;2023-04-01T23:41:30;13.70;;;6.30;;
72065;SDS011;59939;52.516;13.420;2023-04-01T23:44:39;14.30;;;6.17;;
72065;SDS011;59939;52.516;13.420;2023-04-01T23:47:43;14.90;;;6.73;;
72065;SDS011;59939;52.516;13.420;2023-04-01T23:50:56;13.87;;;6.90;;
72065;SDS011;59939;52.516;13.420;2023-04-01T23:54:02;14.20;;;7.23;;
72065;SDS011;59939;52.516;13.420;2023-04-01T23:57:22;16.43;;;7.93;;
